createdAt,value
2023-03-23T15:58:53.790Z,161.55
2023-03-23T16:01:23.266Z,145.88
2023-03-23T16:03:55.526Z,144.82
2023-03-23T16:06:25.681Z,166.70
2023-03-23T16:08:56.304Z,172.07
2023-03-23T16:11:25.637Z,174.07
2023-03-23T16:13:52.617Z,185.00
2023-03-23T16:16:42.209Z,175.75
2023-03-23T16:19:13.526Z,167.90
2023-03-23T16:21:41.245Z,127.22
2023-03-23T16:24:08.912Z,127.90
2023-03-23T16:26:36.381Z,112.43
2023-03-23T16:29:16.051Z,114.07
2023-03-23T16:31:51.685Z,162.50
2023-03-23T16:34:19.113Z,198.70
2023-03-23T16:36:46.052Z,211.80
2023-03-23T16:39:13.218Z,224.13
2023-03-23T16:41:41.026Z,237.05
2023-03-23T16:44:08.670Z,224.18
2023-03-23T16:46:36.147Z,180.25
2023-03-23T16:49:03.462Z,186.88
2023-03-23T16:51:31.120Z,209.68
2023-03-23T16:53:58.442Z,182.77
2023-03-23T16:56:25.889Z,170.93
2023-03-23T16:58:53.244Z,177.35
2023-03-23T17:01:20.990Z,179.60
2023-03-23T17:03:48.379Z,158.65
2023-03-23T17:06:15.888Z,170.25
2023-03-23T17:08:43.106Z,190.45
2023-03-23T17:11:11.137Z,185.02
2023-03-23T17:13:38.517Z,188.90
2023-03-23T17:16:06.571Z,191.07
2023-03-23T17:18:34.159Z,188.15
2023-03-23T17:21:01.503Z,179.05
2023-03-23T17:23:28.647Z,177.93
2023-03-23T17:25:55.871Z,160.40
2023-03-23T17:28:23.271Z,127.53
2023-03-23T17:30:51.389Z,142.23
2023-03-23T17:33:18.705Z,140.35
2023-03-23T17:35:47.379Z,127.93
2023-03-23T17:38:15.460Z,126.70
2023-03-23T17:40:42.559Z,125.47
2023-03-23T17:43:09.951Z,111.13
2023-03-23T17:45:37.322Z,107.18
2023-03-23T17:48:07.325Z,112.07
2023-03-23T17:50:35.468Z,105.15
2023-03-23T17:53:02.978Z,94.80
2023-03-23T17:55:30.383Z,90.85
2023-03-23T17:57:57.731Z,90.72
2023-03-23T18:00:25.908Z,84.32
2023-03-23T18:02:52.992Z,87.60
2023-03-23T18:05:20.206Z,79.75
2023-03-23T18:07:47.499Z,67.78
2023-03-23T18:10:15.093Z,66.72
2023-03-23T18:12:42.291Z,59.53
2023-03-23T18:15:09.774Z,53.05
2023-03-23T18:17:36.847Z,52.55
2023-03-23T18:20:05.023Z,48.33
2023-03-23T18:22:32.320Z,47.85
2023-03-23T18:25:00.735Z,46.78
2023-03-23T18:27:28.471Z,48.97
2023-03-23T18:29:55.897Z,46.47
2023-03-23T18:32:23.287Z,48.13
2023-03-23T18:34:50.789Z,50.92
2023-03-23T18:37:17.941Z,50.15
2023-03-23T18:39:45.280Z,51.30
2023-03-23T18:42:12.547Z,48.88
2023-03-23T18:44:40.357Z,48.92
2023-03-23T18:47:07.876Z,46.30
2023-03-23T18:49:35.250Z,48.75
2023-03-23T18:52:02.496Z,34.15
2023-03-23T18:54:34.393Z,39.92
2023-03-23T18:57:02.468Z,37.80
2023-03-23T18:59:34.214Z,37.65
2023-03-23T19:02:02.393Z,40.75
2023-03-23T19:04:31.688Z,43.03
2023-03-23T19:06:59.753Z,44.78
2023-03-23T19:09:28.954Z,45.83
2023-03-23T19:11:56.468Z,38.72
2023-03-23T19:14:23.468Z,38.97
2023-03-23T19:16:50.351Z,33.65
2023-03-23T19:19:17.945Z,33.83
2023-03-23T19:21:47.044Z,35.63
2023-03-23T19:24:14.744Z,39.45
2023-03-23T19:26:42.952Z,43.75
2023-03-23T19:31:44.640Z,41.80
2023-03-23T19:34:13.327Z,41.50
2023-03-23T19:36:40.580Z,42.10
2023-03-23T19:39:08.833Z,44.88
2023-03-23T19:41:36.587Z,48.05
2023-03-23T19:44:03.962Z,50.22
2023-03-23T19:46:31.692Z,41.70
2023-03-23T19:48:59.156Z,39.33
2023-03-23T19:51:27.065Z,31.67
2023-03-23T19:53:56.217Z,32.58
2023-03-23T19:56:24.090Z,34.63
2023-03-23T19:58:51.912Z,28.30
2023-03-23T20:01:19.440Z,27.67
2023-03-23T20:03:47.979Z,31.25
2023-03-23T20:06:15.648Z,32.70
2023-03-23T20:08:44.476Z,22.45
2023-03-23T20:11:13.534Z,19.55
2023-03-23T20:13:41.112Z,16.33
2023-03-23T20:16:08.595Z,17.00
2023-03-23T20:18:37.823Z,13.25
2023-03-23T20:21:10.195Z,9.52
2023-03-23T20:23:38.643Z,10.63
2023-03-23T20:26:30.694Z,7.40
2023-03-23T20:28:58.769Z,7.68
2023-03-23T20:31:30.489Z,6.25
2023-03-23T20:34:01.991Z,6.38
2023-03-23T20:36:35.304Z,6.53
2023-03-23T20:39:08.219Z,5.43
2023-03-23T20:41:36.305Z,5.05
2023-03-23T20:44:04.855Z,5.95
2023-03-23T20:46:32.296Z,6.20
2023-03-23T20:49:00.691Z,4.65
2023-03-23T20:51:28.215Z,6.45
2023-03-23T20:53:55.321Z,5.63
2023-03-23T20:56:22.730Z,5.07
2023-03-23T20:58:50.872Z,5.57
2023-03-23T21:01:18.015Z,5.50
2023-03-23T21:03:45.465Z,5.63
2023-03-23T21:06:12.874Z,5.80
2023-03-23T21:08:40.466Z,6.00
2023-03-23T21:11:09.590Z,5.95
2023-03-23T21:13:37.427Z,5.38
2023-03-23T21:16:05.208Z,6.18
2023-03-23T21:18:32.613Z,5.50
2023-03-23T21:21:00.141Z,6.30
2023-03-23T21:23:29.239Z,6.15
2023-03-23T21:26:04.232Z,7.30
2023-03-23T21:28:31.550Z,7.55
2023-03-23T21:31:05.808Z,8.27
2023-03-23T21:33:33.102Z,8.95
2023-03-23T21:36:00.881Z,9.27
2023-03-23T21:38:28.293Z,9.00
2023-03-23T21:40:58.502Z,10.07
2023-03-23T21:43:29.080Z,10.82
2023-03-23T21:45:58.596Z,10.25
2023-03-23T21:48:26.865Z,10.63
2023-03-23T21:50:54.240Z,10.90
2023-03-23T21:53:22.025Z,11.55
2023-03-23T21:55:54.297Z,11.68
2023-03-23T21:58:27.040Z,11.18
2023-03-23T22:00:54.990Z,11.98
2023-03-23T22:06:20.598Z,12.50
2023-03-23T22:08:48.209Z,13.65
2023-03-23T22:11:23.397Z,13.50
2023-03-23T22:13:52.457Z,13.80
2023-03-23T22:16:20.499Z,13.93
2023-03-23T22:18:48.201Z,14.10
2023-03-23T22:21:16.536Z,12.63
2023-03-23T22:23:44.436Z,12.18
2023-03-23T22:26:12.133Z,12.02
2023-03-23T22:28:40.053Z,13.90
2023-03-23T22:31:11.710Z,12.43
2023-03-23T22:33:39.784Z,13.18
2023-03-23T22:36:07.325Z,12.93
2023-03-23T22:38:35.982Z,12.25
2023-03-23T22:41:06.445Z,12.73
2023-03-23T22:43:37.315Z,12.88
2023-03-23T22:46:05.324Z,13.25
2023-03-23T22:48:32.866Z,13.88
2023-03-23T22:51:00.207Z,13.73
2023-03-23T22:53:27.770Z,13.23
2023-03-23T22:55:56.171Z,13.63
2023-03-23T22:58:24.640Z,13.90
2023-03-23T23:00:57.236Z,14.65
2023-03-23T23:05:52.851Z,14.32
2023-03-23T23:08:20.275Z,14.90
2023-03-23T23:10:49.398Z,14.80
2023-03-23T23:13:17.132Z,17.50
2023-03-23T23:15:47.137Z,16.20
2023-03-23T23:18:14.665Z,15.75
2023-03-23T23:20:42.586Z,17.33
2023-03-23T23:23:10.276Z,15.93
2023-03-23T23:25:37.775Z,15.25
2023-03-23T23:28:05.578Z,16.15
2023-03-23T23:30:33.253Z,18.13
2023-03-23T23:33:00.737Z,16.23
2023-03-23T23:35:28.282Z,17.10
2023-03-23T23:37:55.741Z,15.45
2023-03-23T23:40:22.887Z,16.50
2023-03-23T23:42:51.163Z,15.88
2023-03-23T23:45:18.729Z,13.93
2023-03-23T23:47:46.919Z,14.90
2023-03-23T23:50:14.547Z,14.75
2023-03-23T23:52:42.388Z,16.63
2023-03-23T23:55:09.668Z,16.25
2023-03-23T23:57:37.068Z,14.73
